createdAt,value
2017-07-29T00:00:22.855Z,51.52
2017-07-29T00:01:22.572Z,51.62
2017-07-29T00:02:22.908Z,51.72
2017-07-29T00:03:22.929Z,51.62
2017-07-29T00:04:23.266Z,51.81
2017-07-29T00:05:22.681Z,51.62
2017-07-29T00:06:23.012Z,51.81
2017-07-29T00:07:23.049Z,52
2017-07-29T00:08:23.078Z,51.81
2017-07-29T00:09:23.103Z,51.62
2017-07-29T00:10:23.137Z,51.62
2017-07-29T00:11:22.848Z,51.62
2017-07-29T00:12:22.877Z,52
2017-07-29T00:13:23.218Z,51.52
2017-07-29T00:14:23.249Z,51.72
2017-07-29T00:15:23.276Z,51.52
2017-07-29T00:16:23.303Z,51.32
2017-07-29T00:17:23.016Z,51.62
2017-07-29T00:18:23.045Z,51.62
2017-07-29T00:19:23.386Z,51.81
2017-07-29T00:20:23.415Z,51.62
2017-07-29T00:21:23.132Z,51.62
2017-07-29T00:22:23.469Z,51.52
2017-07-29T00:23:23.506Z,51.52
2017-07-29T00:24:23.530Z,51.13
2017-07-29T00:25:23.559Z,51.81
2017-07-29T00:26:23.270Z,52.29
2017-07-29T00:27:23.610Z,52.2
2017-07-29T00:28:23.638Z,52.2
2017-07-29T00:29:23.363Z,51.9
2017-07-29T00:30:23.392Z,52
2017-07-29T00:31:23.418Z,52.29
2017-07-29T00:32:23.441Z,51.9
2017-07-29T00:33:23.786Z,52
2017-07-29T00:34:23.811Z,51.9
2017-07-29T00:35:23.523Z,52
2017-07-29T00:36:23.556Z,51.81
2017-07-29T00:37:23.584Z,51.9
2017-07-29T00:38:23.617Z,52.1
2017-07-29T00:39:23.950Z,51.72
2017-07-29T00:40:23.667Z,51.9
2017-07-29T00:41:24.009Z,52.1
2017-07-29T00:42:23.725Z,51.81
2017-07-29T00:43:23.753Z,51.72
2017-07-29T00:44:23.794Z,51.9
2017-07-29T00:45:24.119Z,52.49
2017-07-29T00:46:23.847Z,52.1
2017-07-29T00:47:24.177Z,52.1
2017-07-29T00:48:23.894Z,52.29
2017-07-29T00:49:24.235Z,52.39
2017-07-29T00:50:23.946Z,52.49
2017-07-29T00:51:24.287Z,52.1
2017-07-29T00:52:24.316Z,51.81
2017-07-29T00:53:24.035Z,51.9
2017-07-29T00:54:24.374Z,52
2017-07-29T00:55:24.703Z,51.62
2017-07-29T00:56:24.124Z,52
2017-07-29T00:57:24.153Z,51.9
2017-07-29T00:58:24.173Z,51.72
2017-07-29T00:59:24.510Z,52
2017-07-29T01:00:24.795Z,51.72
2017-07-29T01:01:24.568Z,51.72
2017-07-29T01:02:24.596Z,51.72
2017-07-29T01:03:24.313Z,52.1
2017-07-29T01:04:24.658Z,51.72
2017-07-29T01:05:24.670Z,51.81
2017-07-29T01:06:24.398Z,52.29
2017-07-29T01:07:24.428Z,51.9
2017-07-29T01:08:24.766Z,51.9
2017-07-29T01:09:24.796Z,51.72
2017-07-29T01:10:25.083Z,52
2017-07-29T01:11:24.538Z,52
2017-07-29T01:12:24.886Z,51.81
2017-07-29T01:13:25.361Z,51.88
2017-07-29T01:14:24.630Z,51.81
2017-07-29T01:15:25.263Z,51.9
2017-07-29T01:16:24.680Z,52
2017-07-29T01:17:24.709Z,52.1
2017-07-29T01:18:24.737Z,52.29
2017-07-29T01:19:25.080Z,52.58
2017-07-29T01:20:25.099Z,52.29
2017-07-29T01:21:25.125Z,52.39
2017-07-29T01:22:25.163Z,52.58
2017-07-29T01:23:25.191Z,52.58
2017-07-29T01:24:25.221Z,52.49
2017-07-29T01:25:24.937Z,52.49
2017-07-29T01:26:25.264Z,52.29
2017-07-29T01:27:24.992Z,52.39
2017-07-29T01:28:25.023Z,52.66
2017-07-29T01:29:25.357Z,52.49
2017-07-29T01:30:25.071Z,52.58
2017-07-29T01:31:25.100Z,52.68
2017-07-29T01:32:25.129Z,52.58
2017-07-29T01:33:25.473Z,52.49
2017-07-29T01:34:25.490Z,52.49
2017-07-29T01:35:25.211Z,52.49
2017-07-29T01:36:25.547Z,52.58
2017-07-29T01:37:25.578Z,52.58
2017-07-29T01:38:25.300Z,52.58
2017-07-29T01:39:25.638Z,52.58
2017-07-29T01:40:25.342Z,52.58
2017-07-29T01:41:25.375Z,52.29
2017-07-29T01:42:25.408Z,52.68
2017-07-29T01:43:25.442Z,52.39
2017-07-29T01:44:25.465Z,52.39
2017-07-29T01:45:25.802Z,52.39
2017-07-29T01:46:25.832Z,52.39
2017-07-29T01:47:25.548Z,52.49
2017-07-29T01:48:25.889Z,52.29
2017-07-29T01:49:25.601Z,52.2
2017-07-29T01:50:25.632Z,52.49
2017-07-29T01:51:25.971Z,52.27
2017-07-29T01:52:25.689Z,52.68
2017-07-29T01:53:26.029Z,52.68
2017-07-29T01:54:26.054Z,52.97
2017-07-29T01:55:26.087Z,52.66
2017-07-29T01:56:25.804Z,52.29
2017-07-29T01:57:26.141Z,52.58
2017-07-29T01:58:25.857Z,52.17
2017-07-29T01:59:25.887Z,52.29
2017-07-29T02:00:25.910Z,52.68
2017-07-29T02:01:26.251Z,52.95
2017-07-29T02:02:25.968Z,52.75
2017-07-29T02:03:25.997Z,53.07
2017-07-29T02:04:26.024Z,53.14
2017-07-29T02:05:26.055Z,52.95
2017-07-29T02:06:26.390Z,52.75
2017-07-29T02:07:26.109Z,52.85
2017-07-29T02:08:26.444Z,52.85
2017-07-29T02:09:26.475Z,53.14
2017-07-29T02:10:26.183Z,52.85
2017-07-29T02:11:26.220Z,52.85
2017-07-29T02:12:26.561Z,52.85
2017-07-29T02:13:26.278Z,52.75
2017-07-29T02:14:26.306Z,53.14
2017-07-29T02:15:26.640Z,52.85
2017-07-29T02:16:26.671Z,53.14
2017-07-29T02:17:26.388Z,53.04
2017-07-29T02:18:26.733Z,53.14
2017-07-29T02:19:26.758Z,52.95
2017-07-29T02:20:26.778Z,53.04
2017-07-29T02:21:26.811Z,53.04
2017-07-29T02:22:26.529Z,52.56
2017-07-29T02:23:26.873Z,52.36
2017-07-29T02:24:26.584Z,52.27
2017-07-29T02:25:26.914Z,52.46
2017-07-29T02:26:26.952Z,52.56
2017-07-29T02:27:26.668Z,52.75
2017-07-29T02:28:26.697Z,52.46
2017-07-29T02:29:26.723Z,53.23
2017-07-29T02:30:27.063Z,53.04
2017-07-29T02:31:27.091Z,52.95
2017-07-29T02:32:27.120Z,52.27
2017-07-29T02:33:27.153Z,52.56
2017-07-29T02:34:27.178Z,52.66
2017-07-29T02:35:27.200Z,52.27
2017-07-29T02:36:26.920Z,53.14
2017-07-29T02:37:27.262Z,52.36
2017-07-29T02:38:27.302Z,52.36
2017-07-29T02:39:27.323Z,52.66
2017-07-29T02:40:27.030Z,53.23
2017-07-29T02:41:27.060Z,52.56
2017-07-29T02:42:27.404Z,52.46
2017-07-29T02:43:27.431Z,52.46
2017-07-29T02:44:27.141Z,52.66
2017-07-29T02:45:27.491Z,52.56
2017-07-29T02:46:27.195Z,52.27
2017-07-29T02:47:27.542Z,52.66
2017-07-29T02:48:27.573Z,52.08
2017-07-29T02:49:27.603Z,52.27
2017-07-29T02:50:27.635Z,52.17
2017-07-29T02:51:27.343Z,52.46
2017-07-29T02:52:27.681Z,52.36
2017-07-29T02:53:27.704Z,52.27
2017-07-29T02:54:27.439Z,52.27
2017-07-29T02:55:27.457Z,52.17
2017-07-29T02:56:27.480Z,52.27
2017-07-29T02:57:27.509Z,52.46
2017-07-29T02:58:27.846Z,52.27
2017-07-29T02:59:27.873Z,52.46
2017-07-29T03:00:27.592Z,52.46
2017-07-29T03:01:27.616Z,52.46
2017-07-29T03:02:27.645Z,52.56
2017-07-29T03:03:27.985Z,52.46
2017-07-29T03:04:27.703Z,52.27
2017-07-29T03:05:28.043Z,52.56
2017-07-29T03:06:28.073Z,52.66
2017-07-29T03:07:27.784Z,52.36
2017-07-29T03:08:27.816Z,52.27
2017-07-29T03:09:27.842Z,52.56
2017-07-29T03:10:28.189Z,51.98
2017-07-29T03:11:28.150Z,51.78
2017-07-29T03:12:28.237Z,51.68
2017-07-29T03:13:28.265Z,51.88
2017-07-29T03:14:28.296Z,52.08
2017-07-29T03:15:28.011Z,51.98
2017-07-29T03:16:28.336Z,51.88
2017-07-29T03:17:28.063Z,51.68
2017-07-29T03:18:28.101Z,51.98
2017-07-29T03:19:28.119Z,51.88
2017-07-29T03:20:28.147Z,52.27
2017-07-29T03:21:28.428Z,52.27
2017-07-29T03:22:28.517Z,51.88
2017-07-29T03:23:28.233Z,52.27
2017-07-29T03:24:28.264Z,52.08
2017-07-29T03:25:28.287Z,52.36
2017-07-29T03:26:28.571Z,52.46
2017-07-29T03:27:28.663Z,52.56
2017-07-29T03:28:28.374Z,52.56
2017-07-29T03:29:28.714Z,52.56
2017-07-29T03:30:28.743Z,52.27
2017-07-29T03:31:28.755Z,52.36
2017-07-29T03:32:28.484Z,52.56
2017-07-29T03:33:28.514Z,51.98
2017-07-29T03:34:28.846Z,52.56
2017-07-29T03:35:28.887Z,52.66
2017-07-29T03:36:28.848Z,52.46
2017-07-29T03:37:28.628Z,52.27
2017-07-29T03:38:28.968Z,52.36
2017-07-29T03:39:28.990Z,52.56
2017-07-29T03:40:29.019Z,52.56
2017-07-29T03:41:28.997Z,52.44
2017-07-29T03:42:28.764Z,52.27
2017-07-29T03:43:28.789Z,52.27
2017-07-29T03:44:29.131Z,52.46
2017-07-29T03:45:29.159Z,52.44
2017-07-29T03:46:29.486Z,52.66
2017-07-29T03:47:29.217Z,53.04
2017-07-29T03:48:29.249Z,53.33
2017-07-29T03:49:29.273Z,52.92
2017-07-29T03:50:28.987Z,52.95
2017-07-29T03:51:29.627Z,52.92
2017-07-29T03:52:29.356Z,52.95
2017-07-29T03:53:29.374Z,52.75
2017-07-29T03:54:29.094Z,53.23
2017-07-29T03:55:29.459Z,52.75
2017-07-29T03:56:29.769Z,52.85
2017-07-29T03:57:29.497Z,52.75
2017-07-29T03:58:29.205Z,52.85
2017-07-29T03:59:29.237Z,53.14
2017-07-29T04:00:29.575Z,52.95
2017-07-29T04:01:29.543Z,53.23
2017-07-29T04:02:29.339Z,52.75
2017-07-29T04:03:29.663Z,52.95
2017-07-29T04:04:29.385Z,53.14
2017-07-29T04:05:29.403Z,52.85
2017-07-29T04:06:29.993Z,52.66
2017-07-29T04:07:29.772Z,52.66
2017-07-29T04:08:29.808Z,53.14
2017-07-29T04:09:29.513Z,52.95
2017-07-29T04:10:29.860Z,52.27
2017-07-29T04:11:30.134Z,52.46
2017-07-29T04:12:29.915Z,53.04
2017-07-29T04:13:29.945Z,52.95
2017-07-29T04:14:29.975Z,52.46
2017-07-29T04:15:29.999Z,52.56
2017-07-29T04:16:29.712Z,52.46
2017-07-29T04:17:30.053Z,52.56
2017-07-29T04:18:30.073Z,52.95
2017-07-29T04:19:29.794Z,52.66
2017-07-29T04:20:29.823Z,52.27
2017-07-29T04:21:29.857Z,52.17
2017-07-29T04:22:30.188Z,52.36
2017-07-29T04:23:30.217Z,52.53
2017-07-29T04:24:30.246Z,52.17
2017-07-29T04:25:30.278Z,52.36
2017-07-29T04:26:29.992Z,52.36
2017-07-29T04:27:30.328Z,52.27
2017-07-29T04:28:30.045Z,52.27
2017-07-29T04:29:30.382Z,52.46
2017-07-29T04:30:30.103Z,52.36
2017-07-29T04:31:30.436Z,52.56
2017-07-29T04:32:30.468Z,52.17
2017-07-29T04:33:30.181Z,52.46
2017-07-29T04:34:30.522Z,52.36
2017-07-29T04:35:30.239Z,52.46
2017-07-29T04:36:30.267Z,52.63
2017-07-29T04:37:30.607Z,52.73
2017-07-29T04:38:30.632Z,52.95
2017-07-29T04:39:30.346Z,52.75
2017-07-29T04:40:30.691Z,52.82
2017-07-29T04:41:30.412Z,53.14
2017-07-29T04:42:30.436Z,53.63
2017-07-29T04:43:30.774Z,53.02
2017-07-29T04:44:30.801Z,53.11
2017-07-29T04:45:30.831Z,53.59
2017-07-29T04:46:30.864Z,53.21
2017-07-29T04:47:30.881Z,53.11
2017-07-29T04:48:30.914Z,53.21
2017-07-29T04:49:30.630Z,53.21
2017-07-29T04:50:30.971Z,53.41
2017-07-29T04:51:30.998Z,53.31
2017-07-29T04:52:31.025Z,53.31
2017-07-29T04:53:30.741Z,53.31
2017-07-29T04:54:30.769Z,53.21
2017-07-29T04:55:30.794Z,53.21
2017-07-29T04:56:31.136Z,53.59
2017-07-29T04:57:31.178Z,53.59
2017-07-29T04:58:31.189Z,53.89
2017-07-29T04:59:31.218Z,53.99
2017-07-29T05:00:31.255Z,53.79
2017-07-29T05:01:30.968Z,53.69
2017-07-29T05:02:30.988Z,53.21
2017-07-29T05:03:31.018Z,53.89
2017-07-29T05:04:31.361Z,53.69
2017-07-29T05:05:31.387Z,53.59
2017-07-29T05:06:31.109Z,53.99
2017-07-29T05:07:31.128Z,53.89
2017-07-29T05:08:31.160Z,53.69
2017-07-29T05:09:31.185Z,53.79
2017-07-29T05:10:31.534Z,53.79
2017-07-29T05:11:31.558Z,53.69
2017-07-29T05:12:31.272Z,53.79
2017-07-29T05:13:31.293Z,53.59
2017-07-29T05:14:31.643Z,53.72
2017-07-29T05:15:31.355Z,53.5
2017-07-29T05:16:31.695Z,53.69
2017-07-29T05:17:31.714Z,53.5
2017-07-29T05:18:31.433Z,53.79
2017-07-29T05:19:31.466Z,53.79
2017-07-29T05:20:31.491Z,53.79
2017-07-29T05:21:31.523Z,53.79
2017-07-29T05:22:31.545Z,53.69
2017-07-29T05:23:31.885Z,53.69
2017-07-29T05:24:31.917Z,53.59
2017-07-29T05:25:31.629Z,53.5
2017-07-29T05:26:31.974Z,53.69
2017-07-29T05:27:31.687Z,53.79
2017-07-29T05:28:32.026Z,53.69
2017-07-29T05:29:32.056Z,53.89
2017-07-29T05:30:31.770Z,53.99
2017-07-29T05:31:32.110Z,53.99
2017-07-29T05:32:31.824Z,53.79
2017-07-29T05:33:31.853Z,53.79
2017-07-29T05:34:31.889Z,54.08
2017-07-29T05:35:32.228Z,53.5
2017-07-29T05:36:31.943Z,53.21
2017-07-29T05:37:32.574Z,53.11
2017-07-29T05:38:32.300Z,53.02
2017-07-29T05:39:32.337Z,53.02
2017-07-29T05:40:32.379Z,53.31
2017-07-29T05:41:32.383Z,53.41
2017-07-29T05:42:32.412Z,53.53
2017-07-29T05:43:32.437Z,53.41
2017-07-29T05:44:32.162Z,53.14
2017-07-29T05:45:32.510Z,53.41
2017-07-29T05:46:32.220Z,53.11
2017-07-29T05:47:32.906Z,53.33
2017-07-29T05:48:32.576Z,53.33
2017-07-29T05:49:32.613Z,53.23
2017-07-29T05:50:32.640Z,53.04
2017-07-29T05:51:32.667Z,53.23
2017-07-29T05:52:32.640Z,53.43
2017-07-29T05:53:32.721Z,53.33
2017-07-29T05:54:32.748Z,53.23
2017-07-29T05:55:32.782Z,53.21
2017-07-29T05:56:32.495Z,53.31
2017-07-29T05:57:32.771Z,53.04
2017-07-29T05:58:32.544Z,53.33
2017-07-29T05:59:32.577Z,53.14
2017-07-29T06:00:32.917Z,52.95
2017-07-29T06:01:32.946Z,53.43
2017-07-29T06:02:33.227Z,52.85
2017-07-29T06:03:32.997Z,52.95
2017-07-29T06:04:33.029Z,52.85
2017-07-29T06:05:33.058Z,52.85
2017-07-29T06:06:33.089Z,52.56
2017-07-29T06:07:33.111Z,52.85
2017-07-29T06:08:33.136Z,52.75
2017-07-29T06:09:32.855Z,52.75
2017-07-29T06:10:32.926Z,52.85
2017-07-29T06:11:32.914Z,53.14
2017-07-29T06:12:33.252Z,52.95
2017-07-29T06:13:32.969Z,53.04
2017-07-29T06:14:32.997Z,52.75
2017-07-29T06:15:33.334Z,52.95
2017-07-29T06:16:33.363Z,53.14
2017-07-29T06:17:33.078Z,52.95
2017-07-29T06:18:33.416Z,52.95
2017-07-29T06:19:33.141Z,52.95
2017-07-29T06:20:33.478Z,52.95
2017-07-29T06:21:33.508Z,52.66
2017-07-29T06:22:33.220Z,52.27
2017-07-29T06:23:33.256Z,52.36
2017-07-29T06:24:33.601Z,52.95
2017-07-29T06:25:33.614Z,52.17
2017-07-29T06:26:33.643Z,52.56
2017-07-29T06:27:33.671Z,52.95
2017-07-29T06:28:33.387Z,53.04
2017-07-29T06:29:33.418Z,52.75
2017-07-29T06:30:33.753Z,52.85
2017-07-29T06:31:33.472Z,52.95
2017-07-29T06:32:33.812Z,52.56
2017-07-29T06:33:33.843Z,52.66
2017-07-29T06:34:33.560Z,52.66
2017-07-29T06:35:33.894Z,52.56
2017-07-29T06:36:33.920Z,52.17
2017-07-29T06:37:33.639Z,52.17
2017-07-29T06:38:33.985Z,52.27
2017-07-29T06:39:34.010Z,52.78
2017-07-29T06:40:34.036Z,52.2
2017-07-29T06:41:34.062Z,52.58
2017-07-29T06:42:34.094Z,52.58
2017-07-29T06:43:34.120Z,52.66
2017-07-29T06:44:33.836Z,52.66
2017-07-29T06:45:33.862Z,52.1
2017-07-29T06:46:33.894Z,53.04
2017-07-29T06:47:34.226Z,52.49
2017-07-29T06:48:34.260Z,52.49
2017-07-29T06:49:33.977Z,52.27
2017-07-29T06:50:34.006Z,52.68
2017-07-29T06:51:34.354Z,52.58
2017-07-29T06:52:34.060Z,52.68
2017-07-29T06:53:34.701Z,52.29
2017-07-29T06:54:34.431Z,52.29
2017-07-29T06:55:34.148Z,52.39
2017-07-29T06:56:34.174Z,52.58
2017-07-29T06:57:34.516Z,52.49
2017-07-29T06:58:34.532Z,52.39
2017-07-29T06:59:34.573Z,52.49
2017-07-29T07:00:34.608Z,52.49
2017-07-29T07:01:34.631Z,52.2
2017-07-29T07:02:34.657Z,52.39
2017-07-29T07:03:34.987Z,52.39
2017-07-29T07:04:34.710Z,52.2
2017-07-29T07:05:34.744Z,52.29
2017-07-29T07:06:34.463Z,52.29
2017-07-29T07:07:34.798Z,52.49
2017-07-29T07:08:35.075Z,52.58
2017-07-29T07:09:34.857Z,52.68
2017-07-29T07:10:34.878Z,52.2
2017-07-29T07:11:34.909Z,52.2
2017-07-29T07:12:34.618Z,52.29
2017-07-29T07:13:35.216Z,52.58
2017-07-29T07:14:34.680Z,52.2
2017-07-29T07:15:35.017Z,52.29
2017-07-29T07:16:34.740Z,52.29
2017-07-29T07:17:34.764Z,52.58
2017-07-29T07:18:35.107Z,52.29
2017-07-29T07:19:34.821Z,52.39
2017-07-29T07:20:35.160Z,52.39
2017-07-29T07:21:35.189Z,52.49
2017-07-29T07:22:35.220Z,52.29
2017-07-29T07:23:34.934Z,52.49
2017-07-29T07:24:34.965Z,52.58
2017-07-29T07:25:34.993Z,52.39
2017-07-29T07:26:35.341Z,52.39
2017-07-29T07:27:35.358Z,52.39
2017-07-29T07:28:35.395Z,52.39
2017-07-29T07:29:35.417Z,52.49
2017-07-29T07:30:35.133Z,52.49
2017-07-29T07:31:35.467Z,52.39
2017-07-29T07:32:35.504Z,52.29
2017-07-29T07:33:35.222Z,52.29
2017-07-29T07:34:35.248Z,52.29
2017-07-29T07:35:35.278Z,52.97
2017-07-29T07:36:35.606Z,52.39
2017-07-29T07:37:35.332Z,52.32
2017-07-29T07:38:35.361Z,52.42
2017-07-29T07:39:35.390Z,52.58
2017-07-29T07:40:35.416Z,52.97
2017-07-29T07:41:35.441Z,52.97
2017-07-29T07:42:35.479Z,52.61
2017-07-29T07:43:35.819Z,52.58
2017-07-29T07:44:35.841Z,52.9
2017-07-29T07:45:35.868Z,52.78
2017-07-29T07:46:35.582Z,52.87
2017-07-29T07:47:35.612Z,52.78
2017-07-29T07:48:35.957Z,52.87
2017-07-29T07:49:35.987Z,52.71
2017-07-29T07:50:35.729Z,52.71
2017-07-29T07:51:35.725Z,52.22
2017-07-29T07:52:36.066Z,52.32
2017-07-29T07:53:35.784Z,52.42
2017-07-29T07:54:36.129Z,52.58
2017-07-29T07:55:36.158Z,52.39
2017-07-29T07:56:36.183Z,52.39
2017-07-29T07:57:35.899Z,52.61
2017-07-29T07:58:35.928Z,52.39
2017-07-29T07:59:36.273Z,52.71
2017-07-29T08:00:36.296Z,52.71
2017-07-29T08:01:36.323Z,52.22
2017-07-29T08:02:36.355Z,51.9
2017-07-29T08:03:36.376Z,51.81
2017-07-29T08:04:36.096Z,51.93
2017-07-29T08:05:36.430Z,52.39
2017-07-29T08:06:36.466Z,52.42
2017-07-29T08:07:36.184Z,52.51
2017-07-29T08:08:36.528Z,52.39
2017-07-29T08:09:36.236Z,52.29
2017-07-29T08:10:36.589Z,52.42
2017-07-29T08:11:36.294Z,52.42
2017-07-29T08:12:36.327Z,52.51
2017-07-29T08:13:36.664Z,52.61
2017-07-29T08:14:36.704Z,52.42
2017-07-29T08:15:36.723Z,52.32
2017-07-29T08:16:36.751Z,52.61
2017-07-29T08:17:36.775Z,51.93
2017-07-29T08:18:36.804Z,52.03
2017-07-29T08:19:36.837Z,51.74
2017-07-29T08:20:36.868Z,52.12
2017-07-29T08:21:36.583Z,52.61
2017-07-29T08:22:36.925Z,51.93
2017-07-29T08:23:36.949Z,52.03
2017-07-29T08:24:36.919Z,51.84
2017-07-29T08:25:37.001Z,52.03
2017-07-29T08:26:37.035Z,52.32
2017-07-29T08:27:37.064Z,51.93
2017-07-29T08:28:37.098Z,52.61
2017-07-29T08:29:37.065Z,52.22
2017-07-29T08:30:37.161Z,52.42
2017-07-29T08:31:36.864Z,52.51
2017-07-29T08:32:37.204Z,52.42
2017-07-29T08:33:36.924Z,52.03
2017-07-29T08:34:37.202Z,52.71
2017-07-29T08:35:37.289Z,51.93
2017-07-29T08:36:37.323Z,52.12
2017-07-29T08:37:37.038Z,52.61
2017-07-29T08:38:37.376Z,52.42
2017-07-29T08:39:37.344Z,52.71
2017-07-29T08:40:37.124Z,52.8
2017-07-29T08:41:37.147Z,52.03
2017-07-29T08:42:37.504Z,52.51
2017-07-29T08:43:37.201Z,51.93
2017-07-29T08:44:37.532Z,52.42
2017-07-29T08:45:37.569Z,51.93
2017-07-29T08:46:37.286Z,52.32
2017-07-29T08:47:37.631Z,52.51
2017-07-29T08:48:37.348Z,52.32
2017-07-29T08:49:37.632Z,52.51
2017-07-29T08:50:37.409Z,52.51
2017-07-29T08:51:37.435Z,52.51
2017-07-29T08:52:37.875Z,52.61
2017-07-29T08:53:37.801Z,52.83
2017-07-29T08:54:37.771Z,52.42
2017-07-29T08:55:37.615Z,52.42
2017-07-29T08:56:37.574Z,52.51
2017-07-29T08:57:37.603Z,52.42
2017-07-29T08:58:37.636Z,52.32
2017-07-29T08:59:38.273Z,52.61
2017-07-29T09:00:37.998Z,53.19
2017-07-29T09:01:38.035Z,53
2017-07-29T09:02:37.736Z,52.34
2017-07-29T09:03:38.079Z,52.64
2017-07-29T09:04:37.800Z,52.44
2017-07-29T09:05:38.147Z,52.44
2017-07-29T09:06:37.863Z,52.34
2017-07-29T09:07:38.205Z,52.44
2017-07-29T09:08:38.233Z,52.54
2017-07-29T09:09:37.945Z,52.54
2017-07-29T09:10:38.290Z,52.54
2017-07-29T09:11:38.003Z,52.34
2017-07-29T09:12:38.346Z,52.44
2017-07-29T09:13:38.378Z,52.44
2017-07-29T09:14:38.402Z,52.64
2017-07-29T09:15:38.433Z,52.15
2017-07-29T09:16:38.463Z,52.64
2017-07-29T09:17:38.176Z,52.54
2017-07-29T09:18:38.203Z,52.54
2017-07-29T09:19:38.256Z,52.64
2017-07-29T09:20:38.261Z,52.64
2017-07-29T09:21:38.603Z,52.25
2017-07-29T09:22:38.628Z,52.54
2017-07-29T09:23:38.349Z,52.54
2017-07-29T09:24:38.686Z,52.73
2017-07-29T09:25:38.723Z,52.44
2017-07-29T09:26:38.746Z,52.34
2017-07-29T09:27:38.468Z,52.34
2017-07-29T09:28:38.810Z,52.64
2017-07-29T09:29:38.817Z,52.64
2017-07-29T09:30:38.858Z,52.06
2017-07-29T09:31:38.574Z,52.64
2017-07-29T09:32:38.605Z,52.44
2017-07-29T09:33:38.636Z,51.96
2017-07-29T09:34:38.973Z,51.86
2017-07-29T09:35:38.686Z,51.96
2017-07-29T09:36:39.051Z,51.96
2017-07-29T09:37:39.055Z,52.54
2017-07-29T09:38:38.777Z,52.25
2017-07-29T09:39:38.808Z,52.06
2017-07-29T09:40:39.149Z,52.64
2017-07-29T09:41:38.858Z,51.96
2017-07-29T09:42:39.204Z,51.96
2017-07-29T09:43:39.234Z,52.06
2017-07-29T09:44:38.953Z,52.15
2017-07-29T09:45:38.978Z,51.96
2017-07-29T09:46:39.321Z,52.06
2017-07-29T09:47:39.035Z,51.96
2017-07-29T09:48:39.388Z,51.76
2017-07-29T09:49:39.093Z,51.98
2017-07-29T09:50:39.436Z,52.37
2017-07-29T09:51:39.155Z,51.79
2017-07-29T09:52:39.492Z,51.5
2017-07-29T09:53:39.209Z,51.4
2017-07-29T09:54:39.239Z,51.31
2017-07-29T09:55:39.582Z,51.69
2017-07-29T09:56:39.297Z,51.5
2017-07-29T09:57:39.328Z,51.59
2017-07-29T09:58:39.352Z,51.4
2017-07-29T09:59:39.694Z,51.69
2017-07-29T10:00:39.716Z,51.89
2017-07-29T10:01:39.752Z,51.59
2017-07-29T10:02:39.779Z,51.5
2017-07-29T10:03:39.498Z,51.5
2017-07-29T10:04:39.526Z,51.79
2017-07-29T10:05:39.867Z,51.4
2017-07-29T10:06:39.895Z,51.4
2017-07-29T10:07:39.924Z,51.5
2017-07-29T10:08:39.641Z,51.23
2017-07-29T10:09:39.672Z,51.33
2017-07-29T10:10:39.695Z,50.84
2017-07-29T10:11:40.039Z,51.04
2017-07-29T10:12:40.068Z,51.23
2017-07-29T10:13:40.101Z,50.84
2017-07-29T10:14:39.817Z,51.23
2017-07-29T10:15:40.410Z,51.43
2017-07-29T10:16:39.875Z,51.43
2017-07-29T10:17:40.208Z,51.33
2017-07-29T10:18:40.296Z,51.23
2017-07-29T10:19:40.268Z,50.65
2017-07-29T10:20:40.258Z,51.62
2017-07-29T10:21:40.348Z,50.84
2017-07-29T10:22:40.364Z,51.43
2017-07-29T10:23:40.078Z,51.33
2017-07-29T10:24:40.423Z,51.04
2017-07-29T10:25:40.487Z,51.33
2017-07-29T10:26:40.489Z,51.43
2017-07-29T10:27:40.513Z,50.77
2017-07-29T10:28:40.250Z,50.65
2017-07-29T10:29:40.251Z,50.84
2017-07-29T10:30:40.847Z,50.46
2017-07-29T10:31:40.627Z,50.87
2017-07-29T10:32:40.341Z,50.58
2017-07-29T10:33:40.370Z,50.87
2017-07-29T10:34:40.703Z,50.68
2017-07-29T10:35:40.987Z,50.38
2017-07-29T10:36:40.464Z,50.58
2017-07-29T10:37:40.831Z,50.38
2017-07-29T10:38:40.828Z,50.36
2017-07-29T10:39:40.546Z,50.87
2017-07-29T10:40:41.136Z,50.36
2017-07-29T10:41:40.911Z,50.29
2017-07-29T10:42:40.941Z,50.68
2017-07-29T10:43:40.660Z,50.38
2017-07-29T10:44:40.694Z,50.48
2017-07-29T10:45:40.968Z,50.48
2017-07-29T10:46:41.062Z,50.29
2017-07-29T10:47:41.092Z,50.48
2017-07-29T10:48:41.121Z,50.48
2017-07-29T10:49:41.145Z,50.68
2017-07-29T10:50:41.167Z,50.29
2017-07-29T10:51:41.207Z,50.38
2017-07-29T10:52:41.233Z,50.58
2017-07-29T10:53:40.959Z,49.99
2017-07-29T10:54:40.987Z,50.09
2017-07-29T10:55:41.315Z,49.8
2017-07-29T10:56:41.350Z,50.58
2017-07-29T10:57:41.384Z,49.99
2017-07-29T10:58:41.415Z,50.48
2017-07-29T10:59:41.446Z,50.19
2017-07-29T11:00:41.771Z,50.77
2017-07-29T11:01:41.508Z,50.48
2017-07-29T11:02:41.533Z,49.9
2017-07-29T11:03:41.562Z,50.48
2017-07-29T11:04:41.277Z,49.8
2017-07-29T11:05:41.869Z,50.48
2017-07-29T11:06:41.363Z,50.19
2017-07-29T11:07:41.688Z,50.96
2017-07-29T11:08:41.706Z,49.99
2017-07-29T11:09:41.739Z,50.87
2017-07-29T11:10:41.757Z,50.48
2017-07-29T11:11:41.802Z,50.96
2017-07-29T11:12:41.823Z,49.92
2017-07-29T11:13:41.860Z,50.48
2017-07-29T11:14:41.883Z,49.9
2017-07-29T11:15:42.216Z,50.38
2017-07-29T11:16:41.941Z,50.48
2017-07-29T11:17:41.975Z,50.68
2017-07-29T11:18:41.687Z,50.21
2017-07-29T11:19:42.027Z,50.41
2017-07-29T11:20:41.746Z,50.31
2017-07-29T11:21:42.096Z,50.12
2017-07-29T11:22:42.124Z,50.51
2017-07-29T11:23:42.151Z,50.02
2017-07-29T11:24:42.179Z,50.21
2017-07-29T11:25:41.891Z,49.92
2017-07-29T11:26:42.240Z,50.31
2017-07-29T11:27:41.961Z,50.51
2017-07-29T11:28:41.992Z,50.21
2017-07-29T11:29:42.331Z,50.31
2017-07-29T11:30:42.043Z,50.6
2017-07-29T11:31:42.072Z,50.31
2017-07-29T11:32:42.104Z,50.51
2017-07-29T11:33:42.458Z,50.31
2017-07-29T11:34:42.164Z,50.21
2017-07-29T11:35:42.194Z,50.31
2017-07-29T11:36:42.247Z,50.04
2017-07-29T11:37:42.247Z,50.51
2017-07-29T11:38:42.278Z,50.21
2017-07-29T11:39:42.319Z,50.63
2017-07-29T11:40:42.654Z,50.34
2017-07-29T11:41:42.376Z,50.04
2017-07-29T11:42:42.717Z,50.04
2017-07-29T11:43:42.434Z,50.34
2017-07-29T11:44:42.795Z,50.53
2017-07-29T11:45:42.808Z,50.14
2017-07-29T11:46:42.522Z,50.04
2017-07-29T11:47:42.553Z,49.76
2017-07-29T11:48:42.899Z,49.66
2017-07-29T11:49:42.923Z,50.04
2017-07-29T11:50:42.636Z,50.16
2017-07-29T11:51:42.684Z,50.07
2017-07-29T11:52:43.026Z,49.58
2017-07-29T11:53:42.775Z,49.68
2017-07-29T11:54:43.062Z,49.39
2017-07-29T11:55:43.116Z,49.87
2017-07-29T11:56:43.338Z,49.49
2017-07-29T11:57:43.175Z,49.39
2017-07-29T11:58:42.882Z,49.68
2017-07-29T11:59:42.934Z,49.49
2017-07-29T12:00:42.960Z,49.58
2017-07-29T12:01:42.981Z,49
2017-07-29T12:02:43.020Z,49.29
2017-07-29T12:03:43.356Z,49.02
2017-07-29T12:04:43.073Z,48.93
2017-07-29T12:05:43.533Z,49.02
2017-07-29T12:06:43.175Z,49.32
2017-07-29T12:07:43.185Z,49.12
2017-07-29T12:08:43.209Z,49.32
2017-07-29T12:09:43.258Z,48.93
2017-07-29T12:10:43.591Z,48.73
2017-07-29T12:11:43.632Z,48.75
2017-07-29T12:12:43.324Z,48.75
2017-07-29T12:13:43.476Z,48.66
2017-07-29T12:14:43.380Z,48.46
2017-07-29T12:15:43.829Z,47.98
2017-07-29T12:16:43.508Z,48.36
2017-07-29T12:17:43.496Z,48.17
2017-07-29T12:18:43.589Z,48.07
2017-07-29T12:19:43.554Z,47.9
2017-07-29T12:20:43.632Z,48
2017-07-29T12:21:43.918Z,47.9
2017-07-29T12:22:43.761Z,46.93
2017-07-29T12:23:44.012Z,47.03
2017-07-29T12:24:43.763Z,46.83
2017-07-29T12:25:43.738Z,47.13
2017-07-29T12:26:43.752Z,46.66
2017-07-29T12:27:43.794Z,46.47
2017-07-29T12:28:44.121Z,46.2
2017-07-29T12:29:44.159Z,45.81
2017-07-29T12:30:44.195Z,45.32
2017-07-29T12:31:43.915Z,46
2017-07-29T12:32:44.259Z,45.83
2017-07-29T12:33:43.971Z,45.25
2017-07-29T12:34:44.325Z,45.34
2017-07-29T12:35:44.337Z,44.85
2017-07-29T12:36:44.380Z,44.78
2017-07-29T12:37:44.416Z,44.29
2017-07-29T12:38:44.133Z,43.8
2017-07-29T12:39:44.472Z,43.24
2017-07-29T12:40:44.531Z,43.63
2017-07-29T12:41:44.225Z,43.24
2017-07-29T12:42:44.268Z,43.24
2017-07-29T12:43:44.302Z,43.14
2017-07-29T12:44:44.639Z,42.94
2017-07-29T12:45:44.355Z,43.07
2017-07-29T12:46:44.401Z,43.07
2017-07-29T12:47:44.423Z,42.58
2017-07-29T12:48:44.460Z,42.5
2017-07-29T12:49:44.489Z,42.11
2017-07-29T12:50:44.872Z,42.01
2017-07-29T12:51:44.866Z,42.13
2017-07-29T12:52:44.915Z,41.64
2017-07-29T12:53:44.649Z,41.74
2017-07-29T12:54:44.958Z,41.44
2017-07-29T12:55:44.700Z,41.64